Time;durP1;ratioP1;P1;durP2;ratioP2;P2;SDS_P1;SDS_P2;PMS_P1;PMS_P2;Temp;Humidity;BMP_temperature;BMP_pressure;BME280_temperature;BME280_humidity;BME280_pressure;Samples;Min_cycle;Max_cycle;Signal;HPM_P1;HPM_P2
2021/06/04 00:00:42;;;;;;;20.35;18.35;;;20.70;99.90;;;;;;5081259;28;20312;-65
2021/06/04 00:03:27;;;;;;;20.42;18.83;;;20.70;99.90;;;;;;5072331;28;20178;-65
2021/06/04 00:05:55;;;;;;;19.45;17.60;;;20.70;99.90;;;;;;5086025;28;20181;-65
2021/06/04 00:08:23;;;;;;;19.10;17.55;;;20.70;99.90;;;;;;5092317;28;20212;-65
2021/06/04 00:11:06;;;;;;;21.63;19.52;;;20.70;99.90;;;;;;5079333;28;20269;-65
2021/06/04 00:13:40;;;;;;;19.63;18.00;;;20.60;99.90;;;;;;5072029;28;20162;-64
2021/06/04 00:16:11;;;;;;;20.42;18.52;;;20.60;99.90;;;;;;5086125;28;20173;-64
2021/06/04 00:18:39;;;;;;;20.48;18.88;;;20.60;99.90;;;;;;5092333;28;20196;-65
2021/06/04 00:21:08;;;;;;;23.73;21.57;;;20.70;99.90;;;;;;5078067;28;20182;-65
2021/06/04 00:23:34;;;;;;;27.10;24.73;;;20.70;99.90;;;;;;5071927;28;20174;-65
2021/06/04 00:26:00;;;;;;;28.92;26.63;;;20.70;99.90;;;;;;5083901;28;20542;-64
2021/06/04 00:28:26;;;;;;;27.75;25.10;;;20.60;99.90;;;;;;5091928;28;20692;-64
2021/06/04 00:30:53;;;;;;;25.70;23.30;;;20.60;99.90;;;;;;5080883;28;20236;-65
2021/06/04 00:33:18;;;;;;;25.00;22.95;;;20.60;99.90;;;;;;5071712;28;20693;-65
2021/06/04 00:35:44;;;;;;;25.95;23.38;;;20.60;99.90;;;;;;5080671;28;20177;-65
2021/06/04 00:38:10;;;;;;;24.77;22.57;;;20.60;99.90;;;;;;5092073;28;20185;-65
2021/06/04 00:40:41;;;;;;;23.00;20.65;;;20.60;99.90;;;;;;5084174;28;20217;-65
2021/06/04 00:43:08;;;;;;;23.90;21.50;;;20.50;99.90;;;;;;5071636;28;20715;-65
2021/06/04 00:45:38;;;;;;;24.20;22.00;;;20.40;99.90;;;;;;5072728;28;20298;-65
2021/06/04 00:48:04;;;;;;;24.33;22.10;;;20.40;99.90;;;;;;5071430;28;20202;-65
2021/06/04 00:50:35;;;;;;;23.70;21.70;;;20.40;99.90;;;;;;5077639;28;20181;-64
2021/06/04 00:53:02;;;;;;;25.40;23.08;;;20.40;99.90;;;;;;5091753;28;20252;-65
2021/06/04 00:55:28;;;;;;;25.30;23.17;;;20.40;99.90;;;;;;5085838;28;20185;-65
2021/06/04 00:57:55;;;;;;;29.25;26.85;;;20.30;99.90;;;;;;5071417;28;20197;-65
2021/06/04 01:00:26;;;;;;;26.85;24.85;;;20.30;99.90;;;;;;5075099;28;20690;-65
2021/06/04 01:02:53;;;;;;;28.33;26.08;;;20.30;99.90;;;;;;5091742;28;20166;-64
2021/06/04 01:05:21;;;;;;;27.53;25.00;;;20.30;99.90;;;;;;5087877;28;20170;-65
2021/06/04 01:08:02;;;;;;;27.10;24.60;;;20.20;99.90;;;;;;5071453;28;20678;-65
2021/06/04 01:10:43;;;;;;;24.37;22.07;;;20.20;99.90;;;;;;5075097;28;20177;-64
2021/06/04 01:13:32;;;;;;;26.00;23.87;;;20.20;99.90;;;;;;5091498;28;20204;-65
2021/06/04 01:16:21;;;;;;;25.63;23.43;;;20.20;99.90;;;;;;5083687;28;20540;-64
2021/06/04 01:19:22;;;;;;;24.50;22.33;;;20.10;99.90;;;;;;5071410;28;20181;-65
2021/06/04 01:21:53;;;;;;;24.83;22.77;;;20.20;99.90;;;;;;5084936;28;20181;-65
2021/06/04 01:24:34;;;;;;;27.55;25.13;;;20.00;99.90;;;;;;5091613;28;20264;-65
2021/06/04 01:27:29;;;;;;;30.50;28.10;;;20.10;99.90;;;;;;5075897;28;20205;-65
2021/06/04 01:30:17;;;;;;;42.47;39.53;;;20.10;99.90;;;;;;5068614;28;20226;-64
2021/06/04 01:32:44;;;;;;;29.80;27.20;;;20.20;99.90;;;;;;5051262;28;20194;-64
2021/06/04 01:35:13;;;;;;;37.67;35.03;;;20.20;99.90;;;;;;5076560;28;20204;-64
2021/06/04 01:37:39;;;;;;;34.10;31.47;;;20.20;99.90;;;;;;5071563;28;20620;-64
2021/06/04 01:40:09;;;;;;;28.43;25.87;;;20.20;99.90;;;;;;5087833;28;20549;-64
2021/06/04 01:42:37;;;;;;;25.45;23.52;;;20.20;99.90;;;;;;5093717;28;20185;-64
2021/06/04 01:45:17;;;;;;;23.90;21.90;;;20.20;99.90;;;;;;5095321;28;20169;-65
2021/06/04 01:47:56;;;;;;;29.67;27.40;;;20.20;99.90;;;;;;5081491;28;20205;-65
2021/06/04 01:50:31;;;;;;;28.35;26.08;;;20.20;99.90;;;;;;5074552;28;20170;-64
2021/06/04 01:53:03;;;;;;;21.20;19.25;;;20.20;99.90;;;;;;5075263;28;20181;-65
2021/06/04 01:55:32;;;;;;;25.63;23.55;;;20.20;99.90;;;;;;5074702;28;20213;-65
2021/06/04 01:58:04;;;;;;;30.65;28.13;;;20.10;99.90;;;;;;5088714;28;20292;-65
2021/06/04 02:00:41;;;;;;;27.65;25.30;;;20.10;99.90;;;;;;5094812;28;20170;-65
2021/06/04 02:03:10;;;;;;;23.38;21.55;;;20.10;99.90;;;;;;5079778;28;20212;-65
2021/06/04 02:05:37;;;;;;;23.45;21.50;;;20.10;99.90;;;;;;5079271;28;20258;-65
2021/06/04 02:08:05;;;;;;;23.30;21.05;;;20.10;99.90;;;;;;5094603;28;20197;-66
2021/06/04 02:10:43;;;;;;;27.08;24.83;;;20.10;99.90;;;;;;5091675;28;20174;-67
2021/06/04 02:13:11;;;;;;;29.73;27.50;;;20.00;99.90;;;;;;5075179;28;20181;-68
2021/06/04 02:15:42;;;;;;;25.33;23.40;;;20.00;99.90;;;;;;5076282;28;20173;-67
2021/06/04 02:18:34;;;;;;;25.75;23.60;;;20.00;99.90;;;;;;5075555;28;20250;-66
2021/06/04 02:21:17;;;;;;;25.77;23.97;;;19.80;99.90;;;;;;5081156;28;20161;-67
2021/06/04 02:24:04;;;;;;;30.55;28.45;;;19.80;99.90;;;;;;5095503;28;20177;-71
2021/06/04 02:26:44;;;;;;;25.67;23.80;;;19.80;99.90;;;;;;5093542;28;20204;-68
2021/06/04 02:29:19;;;;;;;37.85;35.05;;;19.90;99.90;;;;;;5095657;28;20527;-69
2021/06/04 02:31:57;;;;;;;29.47;27.17;;;19.80;99.90;;;;;;5083351;28;20550;-67
2021/06/04 02:34:33;;;;;;;35.15;32.55;;;19.80;99.90;;;;;;5074785;28;20189;-69
2021/06/04 02:37:09;;;;;;;30.13;27.73;;;19.90;99.90;;;;;;5069293;28;20281;-68
2021/06/04 02:39:41;;;;;;;28.73;26.33;;;19.80;99.90;;;;;;5094102;28;20233;-66
2021/06/04 02:42:26;;;;;;;25.00;22.87;;;19.70;99.90;;;;;;5081970;28;20178;-65
2021/06/04 02:45:00;;;;;;;26.87;24.60;;;19.70;99.90;;;;;;5056472;28;20178;-65
2021/06/04 02:47:43;;;;;;;25.45;22.77;;;19.70;99.90;;;;;;5071389;28;20205;-66
2021/06/04 02:50:18;;;;;;;25.47;23.17;;;19.60;99.90;;;;;;5092918;28;20177;-66
2021/06/04 02:52:45;;;;;;;34.83;31.93;;;19.60;99.90;;;;;;5076943;28;20717;-66
2021/06/04 02:55:29;;;;;;;58.70;55.15;;;19.60;99.90;;;;;;5074185;28;20162;-66
2021/06/04 02:57:55;;;;;;;38.25;35.63;;;19.50;99.90;;;;;;5091910;28;20197;-65
2021/06/04 03:00:38;;;;;;;34.50;31.90;;;19.60;99.90;;;;;;5093566;28;20177;-65
2021/06/04 03:03:05;;;;;;;31.80;29.40;;;19.60;99.90;;;;;;5074211;28;20554;-65
2021/06/04 03:05:34;;;;;;;28.03;25.73;;;19.60;99.90;;;;;;5073512;28;20261;-65
2021/06/04 03:08:01;;;;;;;26.87;24.50;;;19.60;99.90;;;;;;5091065;28;20252;-65
2021/06/04 03:10:37;;;;;;;25.83;23.63;;;19.70;99.90;;;;;;5093407;28;20173;-65
2021/06/04 03:13:05;;;;;;;24.60;22.33;;;19.60;99.90;;;;;;5075374;28;20590;-65
2021/06/04 03:15:33;;;;;;;23.23;20.87;;;19.60;99.90;;;;;;5073203;28;20178;-65
2021/06/04 03:17:59;;;;;;;24.05;21.60;;;19.60;99.90;;;;;;5089743;28;20200;-65
2021/06/04 03:20:32;;;;;;;22.45;20.55;;;19.70;99.90;;;;;;5093272;28;20165;-65
2021/06/04 03:22:58;;;;;;;24.30;21.83;;;19.70;99.90;;;;;;5077110;28;20182;-65
2021/06/04 03:25:31;;;;;;;22.37;20.47;;;19.80;99.90;;;;;;5072911;28;20249;-65
2021/06/04 03:27:57;;;;;;;32.60;29.73;;;19.80;99.90;;;;;;5088079;28;20209;-65
2021/06/04 03:30:27;;;;;;;27.83;25.40;;;19.60;99.90;;;;;;5092945;28;20172;-65
2021/06/04 03:32:54;;;;;;;25.23;23.03;;;19.60;99.90;;;;;;5077682;28;20178;-65
2021/06/04 03:35:19;;;;;;;23.50;21.53;;;19.60;99.90;;;;;;5086468;28;20711;-65
2021/06/04 03:37:45;;;;;;;30.87;28.40;;;19.60;99.90;;;;;;5091922;28;20189;-65
2021/06/04 03:40:16;;;;;;;31.87;29.07;;;19.60;99.90;;;;;;5080314;28;20265;-65
2021/06/04 03:42:42;;;;;;;34.33;31.77;;;19.50;99.90;;;;;;5072873;28;20382;-64
2021/06/04 03:45:12;;;;;;;29.93;27.20;;;19.60;99.90;;;;;;5083899;28;20177;-65
2021/06/04 03:47:37;;;;;;;27.17;24.47;;;19.60;99.90;;;;;;5092659;28;20712;-65
2021/06/04 03:50:05;;;;;;;28.85;26.17;;;19.60;99.90;;;;;;5082376;28;20205;-65
2021/06/04 03:52:31;;;;;;;28.07;25.40;;;19.70;99.90;;;;;;5072669;28;20175;-65
2021/06/04 03:54:59;;;;;;;26.63;24.10;;;19.70;99.90;;;;;;5081145;28;20173;-65
2021/06/04 03:57:31;;;;;;;25.92;23.65;;;19.60;99.90;;;;;;5092693;28;20185;-65
2021/06/04 03:59:57;;;;;;;30.33;27.43;;;19.60;99.90;;;;;;5083997;28;20460;-65
2021/06/04 04:02:27;;;;;;;32.83;29.03;;;19.70;99.90;;;;;;5072145;28;20174;-65
2021/06/04 04:04:56;;;;;;;30.93;27.97;;;19.70;99.90;;;;;;5079144;28;20193;-65
2021/06/04 04:07:25;;;;;;;35.53;33.03;;;19.80;99.90;;;;;;5092411;28;20208;-65
2021/06/04 04:09:51;;;;;;;21.60;19.50;;;19.70;99.90;;;;;;5085827;28;20207;-65
2021/06/04 04:12:17;;;;;;;25.08;23.00;;;19.70;99.90;;;;;;5072229;28;20526;-65
2021/06/04 04:14:45;;;;;;;21.30;19.40;;;19.60;99.90;;;;;;5076519;28;20180;-65
2021/06/04 04:17:10;;;;;;;23.80;21.57;;;19.60;99.90;;;;;;5092163;28;20185;-65
2021/06/04 04:19:36;;;;;;;21.45;19.45;;;19.60;99.90;;;;;;5089286;28;20260;-65
2021/06/04 04:22:02;;;;;;;22.03;20.13;;;19.70;99.90;;;;;;5071668;28;20632;-65
2021/06/04 04:24:30;;;;;;;21.48;19.45;;;19.80;99.90;;;;;;5072743;28;20216;-65
2021/06/04 04:26:57;;;;;;;27.08;24.73;;;19.90;99.90;;;;;;5096364;22;20202;-65
2021/06/04 04:29:23;;;;;;;27.00;24.60;;;20.00;99.90;;;;;;5071751;28;20302;-66
2021/06/04 04:31:52;;;;;;;25.50;23.17;;;20.10;99.90;;;;;;5072007;28;20181;-65
2021/06/04 04:34:18;;;;;;;38.43;35.83;;;20.20;99.90;;;;;;5072025;28;20580;-66
2021/06/04 04:36:48;;;;;;;22.93;20.73;;;20.20;99.90;;;;;;5090235;28;20260;-66
2021/06/04 04:39:20;;;;;;;27.00;24.90;;;20.30;99.90;;;;;;5092025;28;20173;-65
2021/06/04 04:41:47;;;;;;;26.05;24.05;;;20.30;99.90;;;;;;5073355;28;20178;-66
2021/06/04 04:44:14;;;;;;;21.77;19.47;;;20.30;99.90;;;;;;5071913;28;20174;-66
2021/06/04 04:46:39;;;;;;;24.20;21.90;;;20.30;99.90;;;;;;5087902;28;20178;-66
2021/06/04 04:49:05;;;;;;;22.98;20.88;;;20.50;99.90;;;;;;5073546;28;20208;-65
2021/06/04 04:51:33;;;;;;;23.98;21.63;;;20.40;99.90;;;;;;5076574;28;20248;-65
2021/06/04 04:53:59;;;;;;;25.08;22.95;;;20.60;99.90;;;;;;5071550;28;20185;-66
2021/06/04 04:56:26;;;;;;;25.33;23.20;;;20.50;99.90;;;;;;5084423;28;20169;-66
2021/06/04 04:58:53;;;;;;;23.55;21.40;;;20.70;99.90;;;;;;5091554;28;20198;-65
2021/06/04 05:01:19;;;;;;;24.27;21.95;;;20.90;99.90;;;;;;5079745;28;20273;-66
2021/06/04 05:03:45;;;;;;;24.90;22.90;;;21.10;99.90;;;;;;5071465;28;20253;-65
2021/06/04 05:06:11;;;;;;;20.55;18.73;;;21.20;99.90;;;;;;5072472;28;20182;-65
2021/06/04 05:08:37;;;;;;;21.58;19.77;;;21.30;99.90;;;;;;5071325;28;20277;-66
2021/06/04 05:11:04;;;;;;;23.23;20.45;;;21.50;99.90;;;;;;5081308;28;20635;-65
2021/06/04 05:13:30;;;;;;;25.80;23.50;;;21.70;99.90;;;;;;5094080;28;20638;-66
2021/06/04 05:15:56;;;;;;;23.63;21.35;;;21.70;99.90;;;;;;5086730;28;20598;-63
2021/06/04 05:18:22;;;;;;;25.35;22.20;;;21.80;99.90;;;;;;5075353;28;20198;-63
2021/06/04 05:20:48;;;;;;;24.40;21.90;;;21.90;99.90;;;;;;5081966;28;20173;-66
2021/06/04 05:23:16;;;;;;;24.83;22.50;;;22.00;99.90;;;;;;5095528;28;20165;-66
2021/06/04 05:25:45;;;;;;;26.45;23.60;;;22.20;99.90;;;;;;5076058;28;20177;-63
2021/06/04 05:28:13;;;;;;;24.25;21.85;;;22.20;99.90;;;;;;5075184;28;20697;-66
2021/06/04 05:30:43;;;;;;;22.83;20.88;;;22.30;99.90;;;;;;5092849;28;20234;-66
2021/06/04 05:33:13;;;;;;;22.75;20.35;;;22.40;99.90;;;;;;5089725;28;20171;-64
2021/06/04 05:35:40;;;;;;;21.83;19.92;;;22.70;99.90;;;;;;5076224;28;20262;-66
2021/06/04 05:38:06;;;;;;;21.63;19.50;;;23.00;99.90;;;;;;5075514;28;20193;-66
2021/06/04 05:40:35;;;;;;;23.70;19.55;;;23.20;99.90;;;;;;5074766;28;20632;-63
2021/06/04 05:43:02;;;;;;;22.95;20.75;;;23.20;99.90;;;;;;5077361;28;20186;-63
2021/06/04 05:45:31;;;;;;;23.30;21.30;;;23.30;99.90;;;;;;5088384;28;20186;-66
2021/06/04 05:47:56;;;;;;;21.98;19.83;;;23.30;99.90;;;;;;5057820;28;20202;-66
2021/06/04 05:50:29;;;;;;;23.55;21.45;;;23.30;99.90;;;;;;5094578;28;20526;-65
2021/06/04 05:52:55;;;;;;;23.40;20.98;;;23.30;99.90;;;;;;5094128;28;20161;-65
2021/06/04 05:55:24;;;;;;;24.77;22.35;;;23.40;99.90;;;;;;5074758;28;20273;-66
2021/06/04 05:57:50;;;;;;;24.02;21.55;;;23.30;99.90;;;;;;5074482;28;20265;-65
2021/06/04 06:00:26;;;;;;;24.80;22.35;;;23.40;99.90;;;;;;5093407;28;20181;-65
2021/06/04 06:02:52;;;;;;;23.45;20.95;;;23.60;99.90;;;;;;5094907;28;20200;-65
2021/06/04 06:05:19;;;;;;;24.52;21.63;;;23.80;99.90;;;;;;5079560;28;20612;-65
2021/06/04 06:07:44;;;;;;;24.23;21.85;;;23.90;99.90;;;;;;5094612;28;20727;-65
2021/06/04 06:10:11;;;;;;;23.00;20.60;;;24.00;99.90;;;;;;5076444;28;20202;-65
2021/06/04 06:12:37;;;;;;;24.75;22.50;;;24.10;99.90;;;;;;5074265;28;20185;-65
2021/06/04 06:15:04;;;;;;;24.35;22.17;;;24.10;99.90;;;;;;5089654;28;20212;-65
2021/06/04 06:17:30;;;;;;;22.33;20.05;;;24.10;99.90;;;;;;5094251;28;20193;-65
2021/06/04 06:19:56;;;;;;;23.05;21.00;;;24.00;99.90;;;;;;5079984;28;20606;-65
2021/06/04 06:22:22;;;;;;;23.63;21.15;;;24.20;99.90;;;;;;5056097;28;20178;-65
2021/06/04 06:24:47;;;;;;;23.50;21.15;;;24.40;99.90;;;;;;5075208;28;20186;-65
2021/06/04 06:27:13;;;;;;;23.33;20.90;;;24.30;99.90;;;;;;5073757;28;20205;-65
2021/06/04 06:29:39;;;;;;;25.13;20.55;;;24.40;99.90;;;;;;5065853;28;20209;-65
2021/06/04 06:32:06;;;;;;;21.00;19.05;;;24.50;99.90;;;;;;5093983;28;20262;-66
2021/06/04 06:34:33;;;;;;;22.05;19.75;;;24.70;99.90;;;;;;5085409;28;20212;-65
2021/06/04 06:37:00;;;;;;;21.95;19.38;;;24.90;99.90;;;;;;5073904;28;20186;-65
2021/06/04 06:39:29;;;;;;;21.48;19.40;;;25.20;99.90;;;;;;5079731;28;20181;-65
2021/06/04 06:41:57;;;;;;;21.75;19.75;;;25.70;99.90;;;;;;5093758;28;20172;-65
2021/06/04 06:44:24;;;;;;;21.40;19.40;;;26.10;99.90;;;;;;5087908;28;20202;-65
2021/06/04 06:46:51;;;;;;;20.35;18.63;;;26.50;99.90;;;;;;5072977;28;20178;-65
2021/06/04 06:49:18;;;;;;;18.30;16.58;;;26.90;99.90;;;;;;5077556;28;20204;-65
2021/06/04 06:51:43;;;;;;;21.13;19.05;;;27.00;99.90;;;;;;5093472;28;20542;-65
2021/06/04 06:54:15;;;;;;;21.38;19.48;;;27.20;99.90;;;;;;5090862;28;20173;-65
2021/06/04 06:56:42;;;;;;;20.02;18.35;;;27.00;99.90;;;;;;5073757;28;20174;-65
2021/06/04 06:59:07;;;;;;;19.95;18.20;;;26.40;99.90;;;;;;5075216;28;20457;-65
2021/06/04 07:01:33;;;;;;;21.40;19.42;;;26.40;99.90;;;;;;5093586;28;20175;-65
2021/06/04 07:04:00;;;;;;;19.63;16.73;;;26.40;99.90;;;;;;5092252;28;20291;-65
2021/06/04 07:06:29;;;;;;;20.13;17.75;;;26.50;99.90;;;;;;5073275;28;20174;-65
2021/06/04 07:08:56;;;;;;;20.27;18.50;;;26.40;99.90;;;;;;5073904;28;20206;-65
2021/06/04 07:11:23;;;;;;;22.33;20.58;;;26.60;99.90;;;;;;5093206;28;20173;-65
2021/06/04 07:13:51;;;;;;;20.73;19.13;;;26.80;99.90;;;;;;5093392;28;20214;-65
2021/06/04 07:16:18;;;;;;;21.50;19.40;;;27.00;99.90;;;;;;5092726;28;20280;-65
2021/06/04 07:18:44;;;;;;;25.25;19.70;;;27.00;99.90;;;;;;5093262;28;20678;-66
2021/06/04 07:21:13;;;;;;;20.05;17.92;;;27.00;99.90;;;;;;5074070;28;20200;-65
2021/06/04 07:23:39;;;;;;;20.48;18.58;;;27.00;99.90;;;;;;5072859;28;20219;-65
2021/06/04 07:26:06;;;;;;;19.13;17.33;;;27.00;99.90;;;;;;5089748;28;20177;-65
2021/06/04 07:28:34;;;;;;;19.60;17.70;;;27.20;99.90;;;;;;5092939;28;20236;-65
2021/06/04 07:31:03;;;;;;;20.35;18.65;;;27.10;99.90;;;;;;5077011;28;20181;-65
2021/06/04 07:33:32;;;;;;;20.63;18.70;;;27.20;99.90;;;;;;5073913;28;20166;-65
2021/06/04 07:36:04;;;;;;;21.02;19.13;;;27.30;99.90;;;;;;5053975;28;20173;-66
2021/06/04 07:38:29;;;;;;;21.30;19.40;;;27.20;99.90;;;;;;5081917;28;20345;-65
2021/06/04 07:40:57;;;;;;;21.13;19.00;;;27.00;99.90;;;;;;5091501;28;20256;-65
2021/06/04 07:43:28;;;;;;;20.35;18.30;;;26.80;99.90;;;;;;5087038;28;20537;-65
2021/06/04 07:45:55;;;;;;;21.38;19.38;;;26.80;99.90;;;;;;5092715;28;20962;-65
2021/06/04 07:48:21;;;;;;;20.17;18.23;;;26.60;99.90;;;;;;5092449;28;20284;-65
2021/06/04 07:50:50;;;;;;;21.45;19.25;;;26.40;99.90;;;;;;5091630;28;20545;-65
2021/06/04 07:53:18;;;;;;;20.52;18.63;;;26.30;99.90;;;;;;5092868;28;20171;-65
2021/06/04 07:55:45;;;;;;;22.52;20.42;;;26.50;99.90;;;;;;5092567;28;20623;-66
2021/06/04 07:58:11;;;;;;;20.45;18.67;;;26.80;99.90;;;;;;5092376;28;20258;-66
2021/06/04 08:00:38;;;;;;;19.92;18.10;;;27.30;99.90;;;;;;5092291;28;20173;-66
2021/06/04 08:03:06;;;;;;;22.90;20.73;;;27.50;99.90;;;;;;5092314;28;20180;-66
2021/06/04 08:05:33;;;;;;;21.35;19.45;;;27.70;99.90;;;;;;5092449;28;20215;-66
2021/06/04 08:08:01;;;;;;;24.35;21.73;;;28.00;99.90;;;;;;5092115;28;20193;-65
2021/06/04 08:10:26;;;;;;;24.27;22.27;;;28.20;99.90;;;;;;5092107;28;20170;-66
2021/06/04 08:12:52;;;;;;;24.38;22.40;;;28.70;99.90;;;;;;5092369;28;20239;-66
2021/06/04 08:15:32;;;;;;;26.95;24.73;;;29.20;99.90;;;;;;5092162;28;20634;-66
2021/06/04 08:17:58;;;;;;;27.67;25.25;;;29.30;99.90;;;;;;5092083;28;20197;-66
2021/06/04 08:20:29;;;;;;;25.88;23.63;;;29.60;99.90;;;;;;5091891;28;20257;-66
2021/06/04 08:23:01;;;;;;;25.70;23.13;;;29.80;99.90;;;;;;5092158;28;20173;-66
2021/06/04 08:25:35;;;;;;;25.25;23.00;;;30.00;99.90;;;;;;5092075;28;20169;-66
2021/06/04 08:28:01;;;;;;;22.52;20.63;;;30.30;99.90;;;;;;5091912;28;20724;-66
2021/06/04 08:30:27;;;;;;;26.80;24.33;;;30.90;99.90;;;;;;5091742;28;20249;-66
2021/06/04 08:32:53;;;;;;;26.65;24.23;;;31.50;99.90;;;;;;5091978;28;20165;-66
2021/06/04 08:35:20;;;;;;;24.27;22.05;;;32.30;99.90;;;;;;5092089;28;20306;-66
2021/06/04 08:37:45;;;;;;;24.60;21.42;;;32.90;99.90;;;;;;5091195;28;20216;-67
2021/06/04 08:40:17;;;;;;;23.00;20.83;;;33.60;99.90;;;;;;5091478;28;20631;-66
2021/06/04 08:43:01;;;;;;;22.45;20.13;;;34.50;99.90;;;;;;5091936;28;20199;-66
2021/06/04 08:45:45;;;;;;;22.95;20.67;;;34.90;99.90;;;;;;5073775;28;20263;-66
2021/06/04 08:48:32;;;;;;;22.08;19.92;;;35.00;99.90;;;;;;5091462;28;20671;-66
2021/06/04 08:51:14;;;;;;;31.30;28.55;;;34.80;99.90;;;;;;5090202;28;20196;-66
2021/06/04 08:54:01;;;;;;;25.33;22.92;;;34.40;99.90;;;;;;5091534;28;20169;-66
2021/06/04 08:56:43;;;;;;;34.25;31.55;;;34.30;99.90;;;;;;5091693;28;20253;-66
2021/06/04 08:59:12;;;;;;;30.55;27.98;;;33.60;99.90;;;;;;5091636;28;20197;-66
2021/06/04 09:01:56;;;;;;;30.08;27.17;;;33.60;99.90;;;;;;5091079;28;20181;-66
2021/06/04 09:04:32;;;;;;;30.45;28.05;;;33.50;99.90;;;;;;5091934;28;20185;-66
2021/06/04 09:07:02;;;;;;;28.60;26.02;;;33.40;99.90;;;;;;5091715;28;20634;-66
2021/06/04 09:09:36;;;;;;;28.20;25.48;;;33.50;99.90;;;;;;5091766;28;20197;-66
2021/06/04 09:12:08;;;;;;;27.67;25.27;;;33.50;99.90;;;;;;5091226;28;20176;-66
2021/06/04 09:14:37;;;;;;;22.98;20.60;;;34.10;99.90;;;;;;5091955;28;20180;-66
2021/06/04 09:17:06;;;;;;;25.70;23.20;;;34.80;99.90;;;;;;5089606;28;20221;-66
2021/06/04 09:19:34;;;;;;;23.90;21.45;;;34.80;99.90;;;;;;5074702;28;20162;-66
2021/06/04 09:21:59;;;;;;;23.38;20.92;;;34.60;99.90;;;;;;5070719;28;20185;-66
2021/06/04 09:24:42;;;;;;;21.70;19.65;;;34.70;99.90;;;;;;5071321;28;20175;-66
2021/06/04 09:27:36;;;;;;;19.42;17.45;;;35.20;99.90;;;;;;5071132;28;20202;-66
2021/06/04 09:30:24;;;;;;;20.23;17.38;;;35.60;99.90;;;;;;5070494;28;20247;-66
2021/06/04 09:33:01;;;;;;;22.85;20.73;;;35.80;99.90;;;;;;5089262;28;20715;-66
2021/06/04 09:35:27;;;;;;;20.42;18.70;;;35.70;99.90;;;;;;5079082;28;20584;-66
2021/06/04 09:38:07;;;;;;;21.50;19.35;;;35.40;99.90;;;;;;5069436;28;20567;-66
2021/06/04 09:40:33;;;;;;;22.88;20.95;;;35.10;99.90;;;;;;5071974;28;20178;-66
2021/06/04 09:43:10;;;;;;;20.40;18.48;;;35.00;99.90;;;;;;5070945;28;20227;-66
2021/06/04 09:45:42;;;;;;;24.00;22.00;;;35.10;99.90;;;;;;5082620;28;20170;-66
2021/06/04 09:48:11;;;;;;;22.98;20.58;;;34.80;99.90;;;;;;5083176;28;20190;-66
2021/06/04 09:50:47;;;;;;;22.35;20.25;;;34.20;99.90;;;;;;5050603;28;20174;-66
2021/06/04 09:53:20;;;;;;;25.80;23.40;;;33.50;99.90;;;;;;5079882;28;20181;-65
2021/06/04 09:55:51;;;;;;;26.10;23.45;;;32.60;99.90;;;;;;5091084;28;20665;-66
2021/06/04 09:58:26;;;;;;;24.65;22.15;;;32.30;99.90;;;;;;5075902;28;20296;-66
2021/06/04 10:00:54;;;;;;;25.55;22.83;;;32.00;99.90;;;;;;5074324;28;20656;-65
2021/06/04 10:03:20;;;;;;;24.95;22.60;;;31.60;99.90;;;;;;5088503;28;20185;-66
2021/06/04 10:05:46;;;;;;;24.77;21.80;;;31.60;99.90;;;;;;5082945;28;20193;-66
2021/06/04 10:08:30;;;;;;;21.30;19.42;;;31.90;99.90;;;;;;5074265;28;20225;-66
2021/06/04 10:11:25;;;;;;;22.60;20.23;;;32.10;99.90;;;;;;5086105;28;20231;-66
2021/06/04 10:13:51;;;;;;;20.85;18.88;;;32.80;99.90;;;;;;5058507;28;20196;-66
2021/06/04 10:19:34;;;;;;;21.77;19.48;;;33.60;99.90;;;;;;5074240;28;20178;-66
2021/06/04 10:22:05;;;;;;;21.27;19.08;;;34.10;99.90;;;;;;5073798;28;20181;-66
2021/06/04 10:24:43;;;;;;;19.33;17.38;;;34.30;99.90;;;;;;5074273;28;20681;-66
2021/06/04 10:29:37;;;;;;;22.50;20.60;;;35.10;99.90;;;;;;5091451;28;20217;-66
2021/06/04 10:32:15;;;;;;;21.73;19.55;;;35.00;99.90;;;;;;5074848;28;20232;-65
2021/06/04 10:34:48;;;;;;;20.80;16.20;;;35.30;99.90;;;;;;5073333;28;20182;-65
2021/06/04 10:37:20;;;;;;;19.95;17.80;;;35.90;99.90;;;;;;5093539;28;20593;-66
2021/06/04 10:39:56;;;;;;;20.42;17.38;;;35.80;99.90;;;;;;5093183;28;20177;-66
2021/06/04 10:42:39;;;;;;;20.63;18.88;;;36.10;99.90;;;;;;5073890;28;20181;-63
2021/06/04 10:45:08;;;;;;;18.50;16.17;;;37.20;99.90;;;;;;5073973;28;20654;-63
2021/06/04 10:47:53;;;;;;;13.98;12.82;;;38.00;99.90;;;;;;5073699;28;20235;-63
2021/06/04 10:50:23;;;;;;;15.30;13.75;;;38.70;99.90;;;;;;5091097;28;20749;-63
2021/06/04 10:52:52;;;;;;;14.85;13.45;;;38.20;99.90;;;;;;5093973;28;20166;-63
2021/06/04 10:55:23;;;;;;;20.77;18.70;;;37.30;99.90;;;;;;5076608;28;20185;-65
2021/06/04 10:57:58;;;;;;;17.60;15.88;;;36.20;99.90;;;;;;5072847;28;20247;-65
2021/06/04 11:00:48;;;;;;;19.98;18.17;;;35.90;99.90;;;;;;5090500;28;20184;-65
2021/06/04 11:03:16;;;;;;;19.02;16.98;;;35.50;99.90;;;;;;5082515;28;20186;-65
2021/06/04 11:05:44;;;;;;;17.77;15.98;;;35.10;99.90;;;;;;5074082;28;20189;-66
2021/06/04 11:08:22;;;;;;;18.95;16.23;;;36.00;99.90;;;;;;5073136;28;20197;-65
2021/06/04 11:11:09;;;;;;;18.92;16.05;;;36.70;99.90;;;;;;5091383;28;20272;-66
2021/06/04 11:13:48;;;;;;;18.50;16.63;;;37.00;99.90;;;;;;5092623;28;20161;-65
2021/06/04 11:16:30;;;;;;;17.80;15.18;;;37.30;99.90;;;;;;5073217;28;20174;-65
2021/06/04 11:19:03;;;;;;;18.58;15.00;;;37.60;99.90;;;;;;5076046;28;20570;-66
2021/06/04 11:21:37;;;;;;;22.00;20.00;;;37.70;99.90;;;;;;5093126;28;20174;-66
2021/06/04 11:24:06;;;;;;;19.75;17.95;;;38.10;99.90;;;;;;5091714;28;20168;-63
2021/06/04 11:26:34;;;;;;;20.33;18.35;;;37.60;99.90;;;;;;5093331;28;20173;-63
2021/06/04 11:29:25;;;;;;;19.45;17.38;;;37.60;99.90;;;;;;5087946;28;20309;-63
2021/06/04 11:32:11;;;;;;;19.45;17.73;;;37.60;99.90;;;;;;5072510;28;20231;-63
2021/06/04 11:34:52;;;;;;;17.98;16.27;;;37.60;99.90;;;;;;5081145;28;20181;-63
2021/06/04 11:37:52;;;;;;;19.08;17.10;;;37.40;99.90;;;;;;5092275;28;20193;-63
2021/06/04 11:40:28;;;;;;;17.65;15.73;;;37.90;99.90;;;;;;5064862;28;20193;-63
2021/06/04 11:43:13;;;;;;;21.02;19.05;;;38.10;99.90;;;;;;5072975;28;20184;-63
2021/06/04 11:45:41;;;;;;;19.00;15.85;;;37.60;99.90;;;;;;5072742;28;20170;-65
2021/06/04 11:48:25;;;;;;;18.83;17.00;;;37.10;99.90;;;;;;5078003;28;20602;-65
2021/06/04 11:51:17;;;;;;;20.73;18.75;;;36.80;99.90;;;;;;5091703;28;20654;-65
2021/06/04 11:53:42;;;;;;;21.63;19.50;;;36.30;99.90;;;;;;5082277;28;20182;-65
2021/06/04 11:56:37;;;;;;;20.15;18.00;;;35.60;99.90;;;;;;5072138;28;20653;-65
2021/06/04 11:59:05;;;;;;;20.88;18.88;;;35.00;99.90;;;;;;5083404;28;20288;-65
2021/06/04 12:01:44;;;;;;;21.05;18.98;;;34.30;99.90;;;;;;5090945;28;20670;-65
2021/06/04 12:04:16;;;;;;;23.02;20.55;;;34.80;99.90;;;;;;5080690;28;20260;-65
2021/06/04 12:06:45;;;;;;;20.95;18.67;;;35.50;99.90;;;;;;5092783;28;20176;-65
2021/06/04 12:09:33;;;;;;;19.77;17.98;;;35.90;99.90;;;;;;5079709;28;20296;-66
2021/06/04 12:12:17;;;;;;;19.90;17.92;;;36.80;99.90;;;;;;5071499;28;20647;-66
2021/06/04 12:15:03;;;;;;;18.05;16.42;;;37.60;99.90;;;;;;5088427;28;20181;-66
2021/06/04 12:17:30;;;;;;;17.35;15.70;;;37.70;99.90;;;;;;5091180;28;20192;-66
2021/06/04 12:20:23;;;;;;;21.20;18.63;;;37.60;99.90;;;;;;5077687;28;20175;-66
2021/06/04 12:22:51;;;;;;;19.77;17.77;;;36.50;99.90;;;;;;5090551;28;20192;-66
2021/06/04 12:25:37;;;;;;;21.25;19.30;;;36.30;99.90;;;;;;5090335;28;20173;-66
2021/06/04 12:28:10;;;;;;;19.88;17.90;;;35.20;99.90;;;;;;5060512;28;20284;-65
2021/06/04 12:30:50;;;;;;;20.40;18.38;;;34.30;99.90;;;;;;5072219;28;20618;-66
2021/06/04 12:33:37;;;;;;;24.65;22.42;;;33.60;99.90;;;;;;5070980;28;20238;-65
2021/06/04 12:36:24;;;;;;;24.98;21.38;;;33.00;99.90;;;;;;5072435;28;20536;-66
2021/06/04 12:38:49;;;;;;;22.88;20.67;;;32.50;99.90;;;;;;5075659;28;20593;-65
2021/06/04 12:41:23;;;;;;;23.02;20.98;;;32.20;99.90;;;;;;5085191;28;20231;-66
2021/06/04 12:43:53;;;;;;;26.20;23.77;;;31.80;99.90;;;;;;5074939;28;20264;-66
2021/06/04 12:46:23;;;;;;;23.58;21.38;;;31.60;99.90;;;;;;5091719;28;20169;-65
2021/06/04 12:49:06;;;;;;;25.13;22.77;;;31.50;99.90;;;;;;5088617;28;20204;-66
2021/06/04 12:51:31;;;;;;;23.63;21.42;;;31.00;99.90;;;;;;5071318;28;20584;-65
2021/06/04 12:54:09;;;;;;;20.55;18.13;;;31.00;99.90;;;;;;5090959;28;20169;-66
2021/06/04 12:57:00;;;;;;;23.67;21.33;;;31.00;99.90;;;;;;5091744;28;20173;-66